Flinterborg — PHPH — position and weather

sailwx.info

Track history (hours):
 
Tides and Currents Weather Stations Pressure Air Temp Water Temp Dewpoint Dewpoint Depression Visibility Wind Speed Wind Dir Waves Ship Positions

Flinterborg

Last reported at 2017-Jun-24 20:03 UTC. Time now 2017-Jun-25 05:16 UTC.
Position N 36°36' E 000°16'.

Length 111 m; draft 6.2 m.

Type: Cargo ship. MMSI: 245433000.

Date/timePositionNaut miles runAvg speedWind from/ knotsBaromVisibWave heightAir tempDewpointWater temp
2017-Jun-24 20:03N 36°36' E 000°16'110.9
2017-Jun-24 19:59N 36°36' E 000°17'611.1
2017-Jun-24 19:25N 36°37' E 000°25'3212.0
2017-Jun-24 16:46N 36°41' E 001°04'311.8
2017-Jun-24 16:30N 36°42' E 001°08'711.6
2017-Jun-24 15:56N 36°43' E 001°16'2211.6
2017-Jun-24 14:03N 36°46' E 001°43'1111.5
2017-Jun-24 13:04N 36°48' E 001°57'111.5
2017-Jun-24 13:00N 36°48' E 001°58'611.5
2017-Jun-24 12:30N 36°49' E 002°05'611.5
2017-Jun-24 12:00N 36°50' E 002°12'711.4
2017-Jun-24 11:26N 36°51' E 002°20'511.5
2017-Jun-24 10:58N 36°51' E 002°27'611.5
2017-Jun-24 10:28N 36°52' E 002°34'511.4
2017-Jun-24 10:00N 36°53' E 002°41'611.4
2017-Jun-24 09:30N 36°54' E 002°48'611.3
2017-Jun-24 09:00N 36°55' E 002°55'811.3
2017-Jun-24 08:20N 36°56' E 003°04'611.3
2017-Jun-24 07:50N 36°57' E 003°11'3211.1
2017-Jun-24 04:58N 37°01' E 003°51'511.1
2017-Jun-24 04:30N 37°02' E 003°57'610.9
2017-Jun-24 03:59N 37°03' E 004°04'510.8
2017-Jun-24 03:30N 37°04' E 004°11'2611.3
2017-Jun-24 01:12N 37°08' E 004°43'211.4
2017-Jun-24 01:00N 37°08' E 004°46'611.3
2017-Jun-24 00:30N 37°09' E 004°53'611.4
2017-Jun-24 00:00N 37°10' E 004°60'611.3
2017-Jun-23 23:29N 37°11' E 005°07'611.3
2017-Jun-23 23:00N 37°12' E 005°14'611.3
2017-Jun-23 22:26N 37°12' E 005°22'511.4
2017-Jun-23 22:00N 37°13' E 005°28'611.3
2017-Jun-23 21:30N 37°14' E 005°35'611.2
2017-Jun-23 21:00N 37°15' E 005°42'611.2
2017-Jun-23 20:29N 37°16' E 005°49'17411.2
2017-Jun-23 04:56N 37°38' E 009°26'510.6
2017-Jun-23 04:30N 37°38' E 009°32'5110.6
2017-Jun-22 23:40N 37°33' E 010°36'210.7
2017-Jun-22 23:28N 37°33' E 010°39'510.4
2017-Jun-22 22:57N 37°32' E 010°45'510.5
2017-Jun-22 22:30N 37°31' E 010°51'610.6
2017-Jun-22 21:56N 37°29' E 010°59'510.6
2017-Jun-22 21:30N 37°28' E 011°04'510.6
2017-Jun-22 21:00N 37°27' E 011°11'510.4
2017-Jun-22 20:30N 37°24' E 011°16'5 9.0
2017-Jun-22 20:00N 37°21' E 011°21'510.8
2017-Jun-22 19:29N 37°16' E 011°20'611.2
2017-Jun-22 18:59N 37°10' E 011°19'611.2
2017-Jun-22 18:29N 37°05' E 011°18'611.5
2017-Jun-22 17:58N 36°59' E 011°17'711.8
2017-Jun-22 17:20N 36°51' E 011°16'411.6
2017-Jun-22 17:00N 36°48' E 011°15'711.6
2017-Jun-22 16:24N 36°41' E 011°12'511.7
2017-Jun-22 15:58N 36°36' E 011°10'511.6
2017-Jun-22 15:30N 36°31' E 011°08'611.5
2017-Jun-22 15:00N 36°26' E 011°05'611.7
2017-Jun-22 14:30N 36°21' E 011°01'1211.6
2017-Jun-22 13:30N 36°10' E 010°54'611.4
2017-Jun-22 13:01N 36°05' E 010°51'611.4
2017-Jun-22 12:30N 36°01' E 010°48'611.2
2017-Jun-22 12:00N 35°56' E 010°44'611.0
2017-Jun-22 11:30N 35°51' E 010°41'  
2017-Jun-18 03:53N 35°50' E 010°39'0 0.0
2017-Jun-18 02:35N 35°50' E 010°39'0 0.0
2017-Jun-17 15:06N 35°50' E 010°39'0 0.0
2017-Jun-17 13:59N 35°50' E 010°39'0 0.0
2017-Jun-17 13:29N 35°50' E 010°39'0 0.0
2017-Jun-17 12:59N 35°50' E 010°39'0 0.0
2017-Jun-17 04:49N 35°50' E 010°39'0 0.3
2017-Jun-17 04:26N 35°50' E 010°39'10 7.8
2017-Jun-17 03:09N 35°57' E 010°47'211.7
2017-Jun-17 02:59N 35°58' E 010°49'611.8
2017-Jun-17 02:30N 36°02' E 010°53'611.8
2017-Jun-17 02:00N 36°07' E 010°58'612.1
2017-Jun-17 01:31N 36°11' E 011°03'612.2
2017-Jun-17 01:00N 36°16' E 011°09'611.8
2017-Jun-17 00:30N 36°21' E 011°12'3211.4
2017-Jun-16 21:43N 36°53' E 011°15'311.2
2017-Jun-16 21:30N 36°55' E 011°15'34 8.9
2017-Jun-16 17:42N 37°25' E 010°54'3112.2
2017-Jun-16 15:08N 37°32' E 010°15'3512.5
2017-Jun-16 12:22N 37°31' E 009°32'512.5
2017-Jun-16 11:59N 37°30' E 009°26'712.5
2017-Jun-16 11:24N 37°30' E 009°17'11612.3
2017-Jun-16 02:01N 37°17' E 006°52'112.8
2017-Jun-16 01:57N 37°17' E 006°51'11312.1
2017-Jun-15 16:39N 37°02' E 004°31'212.2
2017-Jun-15 16:30N 37°02' E 004°29'612.1
2017-Jun-15 16:00N 37°01' E 004°21'612.1
2017-Jun-15 15:30N 37°01' E 004°13'612.0
2017-Jun-15 15:00N 36°60' E 004°06'611.9
2017-Jun-15 14:30N 36°59' E 003°59'1212.1
2017-Jun-15 13:30N 36°57' E 003°44'612.2
2017-Jun-15 12:59N 36°56' E 003°36'912.3
2017-Jun-15 12:16N 36°55' E 003°25'612.7
2017-Jun-15 11:47N 36°55' E 003°17'  
Track history (hours):
 
Tides and Currents Weather Stations Pressure Air Temp Water Temp Dewpoint Dewpoint Depression Visibility Wind Speed Wind Dir Waves Ship Positions

Flinterborg

Last reported at 2017-Jun-24 20:03 UTC. Time now 2017-Jun-25 05:16 UTC.
Position N 36°36' E 000°16'.

Length 111 m; draft 6.2 m.

Type: Cargo ship. MMSI: 245433000.

Date/timePositionNaut miles runAvg speedWind from/ knotsBaromVisibWave heightAir tempDewpointWater temp
2017-Jun-24 20:03N 36°36' E 000°16'110.9
2017-Jun-24 19:59N 36°36' E 000°17'611.1
2017-Jun-24 19:25N 36°37' E 000°25'3212.0
2017-Jun-24 16:46N 36°41' E 001°04'311.8
2017-Jun-24 16:30N 36°42' E 001°08'711.6
2017-Jun-24 15:56N 36°43' E 001°16'2211.6
2017-Jun-24 14:03N 36°46' E 001°43'1111.5
2017-Jun-24 13:04N 36°48' E 001°57'111.5
2017-Jun-24 13:00N 36°48' E 001°58'611.5
2017-Jun-24 12:30N 36°49' E 002°05'611.5
2017-Jun-24 12:00N 36°50' E 002°12'711.4
2017-Jun-24 11:26N 36°51' E 002°20'511.5
2017-Jun-24 10:58N 36°51' E 002°27'611.5
2017-Jun-24 10:28N 36°52' E 002°34'511.4
2017-Jun-24 10:00N 36°53' E 002°41'611.4
2017-Jun-24 09:30N 36°54' E 002°48'611.3
2017-Jun-24 09:00N 36°55' E 002°55'811.3
2017-Jun-24 08:20N 36°56' E 003°04'611.3
2017-Jun-24 07:50N 36°57' E 003°11'3211.1
2017-Jun-24 04:58N 37°01' E 003°51'511.1
2017-Jun-24 04:30N 37°02' E 003°57'610.9
2017-Jun-24 03:59N 37°03' E 004°04'510.8
2017-Jun-24 03:30N 37°04' E 004°11'2611.3
2017-Jun-24 01:12N 37°08' E 004°43'211.4
2017-Jun-24 01:00N 37°08' E 004°46'611.3
2017-Jun-24 00:30N 37°09' E 004°53'611.4
2017-Jun-24 00:00N 37°10' E 004°60'611.3
2017-Jun-23 23:29N 37°11' E 005°07'611.3
2017-Jun-23 23:00N 37°12' E 005°14'611.3
2017-Jun-23 22:26N 37°12' E 005°22'511.4
2017-Jun-23 22:00N 37°13' E 005°28'611.3
2017-Jun-23 21:30N 37°14' E 005°35'611.2
2017-Jun-23 21:00N 37°15' E 005°42'611.2
2017-Jun-23 20:29N 37°16' E 005°49'17411.2
2017-Jun-23 04:56N 37°38' E 009°26'510.6
2017-Jun-23 04:30N 37°38' E 009°32'5110.6
2017-Jun-22 23:40N 37°33' E 010°36'210.7
2017-Jun-22 23:28N 37°33' E 010°39'510.4
2017-Jun-22 22:57N 37°32' E 010°45'510.5
2017-Jun-22 22:30N 37°31' E 010°51'610.6
2017-Jun-22 21:56N 37°29' E 010°59'510.6
2017-Jun-22 21:30N 37°28' E 011°04'510.6
2017-Jun-22 21:00N 37°27' E 011°11'510.4
2017-Jun-22 20:30N 37°24' E 011°16'5 9.0
2017-Jun-22 20:00N 37°21' E 011°21'510.8
2017-Jun-22 19:29N 37°16' E 011°20'611.2
2017-Jun-22 18:59N 37°10' E 011°19'611.2
2017-Jun-22 18:29N 37°05' E 011°18'611.5
2017-Jun-22 17:58N 36°59' E 011°17'711.8
2017-Jun-22 17:20N 36°51' E 011°16'411.6
2017-Jun-22 17:00N 36°48' E 011°15'711.6
2017-Jun-22 16:24N 36°41' E 011°12'511.7
2017-Jun-22 15:58N 36°36' E 011°10'511.6
2017-Jun-22 15:30N 36°31' E 011°08'611.5
2017-Jun-22 15:00N 36°26' E 011°05'611.7
2017-Jun-22 14:30N 36°21' E 011°01'1211.6
2017-Jun-22 13:30N 36°10' E 010°54'611.4
2017-Jun-22 13:01N 36°05' E 010°51'611.4
2017-Jun-22 12:30N 36°01' E 010°48'611.2
2017-Jun-22 12:00N 35°56' E 010°44'611.0
2017-Jun-22 11:30N 35°51' E 010°41'  
2017-Jun-18 03:53N 35°50' E 010°39'0 0.0
2017-Jun-18 02:35N 35°50' E 010°39'0 0.0
2017-Jun-17 15:06N 35°50' E 010°39'0 0.0
2017-Jun-17 13:59N 35°50' E 010°39'0 0.0
2017-Jun-17 13:29N 35°50' E 010°39'0 0.0
2017-Jun-17 12:59N 35°50' E 010°39'0 0.0
2017-Jun-17 04:49N 35°50' E 010°39'0 0.3
2017-Jun-17 04:26N 35°50' E 010°39'10 7.8
2017-Jun-17 03:09N 35°57' E 010°47'211.7
2017-Jun-17 02:59N 35°58' E 010°49'611.8
2017-Jun-17 02:30N 36°02' E 010°53'611.8
2017-Jun-17 02:00N 36°07' E 010°58'612.1
2017-Jun-17 01:31N 36°11' E 011°03'612.2
2017-Jun-17 01:00N 36°16' E 011°09'611.8
2017-Jun-17 00:30N 36°21' E 011°12'3211.4
2017-Jun-16 21:43N 36°53' E 011°15'311.2
2017-Jun-16 21:30N 36°55' E 011°15'34 8.9
2017-Jun-16 17:42N 37°25' E 010°54'3112.2
2017-Jun-16 15:08N 37°32' E 010°15'3512.5
2017-Jun-16 12:22N 37°31' E 009°32'512.5
2017-Jun-16 11:59N 37°30' E 009°26'712.5
2017-Jun-16 11:24N 37°30' E 009°17'11612.3
2017-Jun-16 02:01N 37°17' E 006°52'112.8
2017-Jun-16 01:57N 37°17' E 006°51'11312.1
2017-Jun-15 16:39N 37°02' E 004°31'212.2
2017-Jun-15 16:30N 37°02' E 004°29'612.1
2017-Jun-15 16:00N 37°01' E 004°21'612.1
2017-Jun-15 15:30N 37°01' E 004°13'612.0
2017-Jun-15 15:00N 36°60' E 004°06'611.9
2017-Jun-15 14:30N 36°59' E 003°59'1212.1
2017-Jun-15 13:30N 36°57' E 003°44'612.2
2017-Jun-15 12:59N 36°56' E 003°36'912.3
2017-Jun-15 12:16N 36°55' E 003°25'612.7
2017-Jun-15 11:47N 36°55' E 003°17'  

Dump ship's entire track history